sensor_id;sensor_type;location;lat;lon;timestamp;P1;durP1;ratioP1;P2;durP2;ratioP2
75774;SDS011;64505;51.458;7.556;2023-05-10T00:00:54;3.30;;;1.30;;
75774;SDS011;64505;51.458;7.556;2023-05-10T00:02:55;2.72;;;1.27;;
75774;SDS011;64505;51.458;7.556;2023-05-10T00:04:57;1.85;;;1.13;;
75774;SDS011;64505;51.458;7.556;2023-05-10T00:06:59;3.13;;;1.50;;
75774;SDS011;64505;51.458;7.556;2023-05-10T00:09:01;3.42;;;1.42;;
75774;SDS011;64505;51.458;7.556;2023-05-10T00:11:02;3.53;;;1.63;;
75774;SDS011;64505;51.458;7.556;2023-05-10T00:13:04;5.38;;;1.75;;
75774;SDS011;64505;51.458;7.556;2023-05-10T00:15:06;5.13;;;1.65;;
75774;SDS011;64505;51.458;7.556;2023-05-10T00:17:08;6.60;;;2.53;;
75774;SDS011;64505;51.458;7.556;2023-05-10T00:19:09;9.07;;;3.05;;
75774;SDS011;64505;51.458;7.556;2023-05-10T00:21:11;12.65;;;4.55;;
75774;SDS011;64505;51.458;7.556;2023-05-10T00:23:13;13.55;;;5.18;;
75774;SDS011;64505;51.458;7.556;2023-05-10T00:25:14;10.27;;;4.25;;
75774;SDS011;64505;51.458;7.556;2023-05-10T00:27:16;8.15;;;4.28;;
75774;SDS011;64505;51.458;7.556;2023-05-10T00:29:18;10.85;;;5.13;;
75774;SDS011;64505;51.458;7.556;2023-05-10T00:31:20;14.18;;;5.85;;
75774;SDS011;64505;51.458;7.556;2023-05-10T00:33:22;12.13;;;5.53;;
75774;SDS011;64505;51.458;7.556;2023-05-10T00:35:24;10.57;;;5.28;;
75774;SDS011;64505;51.458;7.556;2023-05-10T00:37:25;8.80;;;3.67;;
75774;SDS011;64505;51.458;7.556;2023-05-10T00:39:27;9.73;;;4.15;;
75774;SDS011;64505;51.458;7.556;2023-05-10T00:41:29;7.07;;;3.42;;
75774;SDS011;64505;51.458;7.556;2023-05-10T00:43:33;7.45;;;3.75;;
75774;SDS011;64505;51.458;7.556;2023-05-10T00:45:35;6.20;;;2.92;;
75774;SDS011;64505;51.458;7.556;2023-05-10T00:47:38;4.82;;;2.60;;
75774;SDS011;64505;51.458;7.556;2023-05-10T00:49:40;7.05;;;2.58;;
75774;SDS011;64505;51.458;7.556;2023-05-10T00:51:42;5.90;;;2.58;;
75774;SDS011;64505;51.458;7.556;2023-05-10T00:53:45;4.32;;;2.20;;
75774;SDS011;64505;51.458;7.556;2023-05-10T00:55:47;3.83;;;2.63;;
75774;SDS011;64505;51.458;7.556;2023-05-10T00:57:53;5.40;;;2.03;;
75774;SDS011;64505;51.458;7.556;2023-05-10T00:59:55;3.83;;;2.00;;
75774;SDS011;64505;51.458;7.556;2023-05-10T01:01:56;4.05;;;1.63;;
75774;SDS011;64505;51.458;7.556;2023-05-10T01:03:59;5.22;;;1.92;;
75774;SDS011;64505;51.458;7.556;2023-05-10T01:06:01;3.42;;;1.65;;
75774;SDS011;64505;51.458;7.556;2023-05-10T01:08:03;3.10;;;1.70;;
75774;SDS011;64505;51.458;7.556;2023-05-10T01:10:07;4.05;;;2.10;;
75774;SDS011;64505;51.458;7.556;2023-05-10T01:12:10;3.90;;;1.55;;
75774;SDS011;64505;51.458;7.556;2023-05-10T01:14:12;3.00;;;1.70;;
75774;SDS011;64505;51.458;7.556;2023-05-10T01:16:14;5.90;;;1.95;;
75774;SDS011;64505;51.458;7.556;2023-05-10T01:18:16;4.72;;;1.80;;
75774;SDS011;64505;51.458;7.556;2023-05-10T01:20:21;3.17;;;1.70;;
75774;SDS011;64505;51.458;7.556;2023-05-10T01:26:39;4.75;;;2.33;;
75774;SDS011;64505;51.458;7.556;2023-05-10T01:31:18;4.22;;;2.30;;
75774;SDS011;64505;51.458;7.556;2023-05-10T01:40:38;7.55;;;3.67;;
75774;SDS011;64505;51.458;7.556;2023-05-10T01:42:47;6.43;;;3.30;;
75774;SDS011;64505;51.458;7.556;2023-05-10T01:47:04;6.20;;;3.13;;
75774;SDS011;64505;51.458;7.556;2023-05-10T01:49:11;6.60;;;3.72;;
75774;SDS011;64505;51.458;7.556;2023-05-10T01:51:21;6.40;;;3.63;;
75774;SDS011;64505;51.458;7.556;2023-05-10T01:53:26;6.55;;;3.75;;
75774;SDS011;64505;51.458;7.556;2023-05-10T01:55:30;6.22;;;3.45;;
75774;SDS011;64505;51.458;7.556;2023-05-10T01:57:36;6.63;;;3.40;;
75774;SDS011;64505;51.458;7.556;2023-05-10T01:59:40;6.43;;;3.30;;
75774;SDS011;64505;51.458;7.556;2023-05-10T02:01:46;6.35;;;3.30;;
75774;SDS011;64505;51.458;7.556;2023-05-10T02:03:50;6.68;;;3.28;;
75774;SDS011;64505;51.458;7.556;2023-05-10T02:05:53;6.05;;;3.15;;
75774;SDS011;64505;51.458;7.556;2023-05-10T02:07:56;6.30;;;3.35;;
75774;SDS011;64505;51.458;7.556;2023-05-10T02:10:00;6.10;;;3.40;;
75774;SDS011;64505;51.458;7.556;2023-05-10T02:12:03;5.95;;;3.60;;
75774;SDS011;64505;51.458;7.556;2023-05-10T02:14:07;6.70;;;3.55;;
75774;SDS011;64505;51.458;7.556;2023-05-10T02:16:11;7.28;;;4.07;;
75774;SDS011;64505;51.458;7.556;2023-05-10T02:18:15;8.85;;;3.67;;
75774;SDS011;64505;51.458;7.556;2023-05-10T02:20:18;7.72;;;4.03;;
75774;SDS011;64505;51.458;7.556;2023-05-10T02:22:20;7.53;;;4.35;;
75774;SDS011;64505;51.458;7.556;2023-05-10T02:24:23;7.25;;;4.22;;
75774;SDS011;64505;51.458;7.556;2023-05-10T02:26:26;7.95;;;4.10;;
75774;SDS011;64505;51.458;7.556;2023-05-10T02:28:28;6.07;;;3.70;;
75774;SDS011;64505;51.458;7.556;2023-05-10T02:30:32;7.43;;;4.03;;
75774;SDS011;64505;51.458;7.556;2023-05-10T02:32:35;6.53;;;3.80;;
75774;SDS011;64505;51.458;7.556;2023-05-10T02:34:38;6.80;;;3.40;;
75774;SDS011;64505;51.458;7.556;2023-05-10T02:36:41;6.57;;;3.55;;
75774;SDS011;64505;51.458;7.556;2023-05-10T02:38:44;6.97;;;3.45;;
75774;SDS011;64505;51.458;7.556;2023-05-10T02:40:47;5.63;;;3.17;;
75774;SDS011;64505;51.458;7.556;2023-05-10T02:42:50;5.47;;;2.83;;
75774;SDS011;64505;51.458;7.556;2023-05-10T02:44:59;5.35;;;2.60;;
75774;SDS011;64505;51.458;7.556;2023-05-10T02:47:02;5.00;;;2.80;;
75774;SDS011;64505;51.458;7.556;2023-05-10T02:49:04;3.90;;;2.00;;
75774;SDS011;64505;51.458;7.556;2023-05-10T02:51:07;3.58;;;1.52;;
75774;SDS011;64505;51.458;7.556;2023-05-10T02:53:09;3.80;;;1.65;;
75774;SDS011;64505;51.458;7.556;2023-05-10T02:57:22;2.92;;;1.38;;
75774;SDS011;64505;51.458;7.556;2023-05-10T02:59:27;5.78;;;1.38;;
75774;SDS011;64505;51.458;7.556;2023-05-10T03:01:29;3.88;;;1.30;;
75774;SDS011;64505;51.458;7.556;2023-05-10T03:03:30;2.40;;;1.20;;
75774;SDS011;64505;51.458;7.556;2023-05-10T03:05:32;3.08;;;1.20;;
75774;SDS011;64505;51.458;7.556;2023-05-10T03:07:34;3.13;;;1.23;;
75774;SDS011;64505;51.458;7.556;2023-05-10T03:09:36;3.40;;;1.17;;
75774;SDS011;64505;51.458;7.556;2023-05-10T03:11:48;2.42;;;1.02;;
75774;SDS011;64505;51.458;7.556;2023-05-10T03:14:16;2.42;;;1.20;;
75774;SDS011;64505;51.458;7.556;2023-05-10T03:16:35;1.92;;;0.90;;
75774;SDS011;64505;51.458;7.556;2023-05-10T03:18:50;1.80;;;1.00;;
75774;SDS011;64505;51.458;7.556;2023-05-10T03:21:02;2.45;;;1.10;;
75774;SDS011;64505;51.458;7.556;2023-05-10T03:25:20;2.72;;;1.25;;
75774;SDS011;64505;51.458;7.556;2023-05-10T03:27:25;2.38;;;1.02;;
75774;SDS011;64505;51.458;7.556;2023-05-10T03:29:28;2.20;;;1.10;;
75774;SDS011;64505;51.458;7.556;2023-05-10T03:31:32;2.60;;;1.42;;
75774;SDS011;64505;51.458;7.556;2023-05-10T03:33:34;4.30;;;1.20;;
75774;SDS011;64505;51.458;7.556;2023-05-10T03:35:35;2.50;;;1.20;;
75774;SDS011;64505;51.458;7.556;2023-05-10T03:37:37;4.22;;;1.40;;
75774;SDS011;64505;51.458;7.556;2023-05-10T03:39:39;3.53;;;1.25;;
75774;SDS011;64505;51.458;7.556;2023-05-10T03:41:40;1.73;;;1.00;;
75774;SDS011;64505;51.458;7.556;2023-05-10T03:43:42;2.83;;;1.23;;
75774;SDS011;64505;51.458;7.556;2023-05-10T03:45:44;3.60;;;1.23;;
75774;SDS011;64505;51.458;7.556;2023-05-10T03:47:45;6.15;;;1.10;;
75774;SDS011;64505;51.458;7.556;2023-05-10T03:49:47;2.55;;;1.20;;
75774;SDS011;64505;51.458;7.556;2023-05-10T03:51:49;3.70;;;1.33;;
75774;SDS011;64505;51.458;7.556;2023-05-10T03:53:50;4.80;;;1.67;;
75774;SDS011;64505;51.458;7.556;2023-05-10T03:55:52;3.33;;;1.50;;
75774;SDS011;64505;51.458;7.556;2023-05-10T03:57:53;2.83;;;1.48;;
75774;SDS011;64505;51.458;7.556;2023-05-10T03:59:55;4.75;;;2.53;;
75774;SDS011;64505;51.458;7.556;2023-05-10T04:01:57;6.25;;;2.80;;
75774;SDS011;64505;51.458;7.556;2023-05-10T04:03:58;5.38;;;2.95;;
75774;SDS011;64505;51.458;7.556;2023-05-10T04:06:00;6.60;;;3.80;;
75774;SDS011;64505;51.458;7.556;2023-05-10T04:08:08;7.25;;;4.10;;
75774;SDS011;64505;51.458;7.556;2023-05-10T04:10:11;8.63;;;4.65;;
75774;SDS011;64505;51.458;7.556;2023-05-10T04:12:12;8.75;;;5.03;;
75774;SDS011;64505;51.458;7.556;2023-05-10T04:14:14;11.82;;;5.72;;
75774;SDS011;64505;51.458;7.556;2023-05-10T04:16:16;9.75;;;5.60;;
75774;SDS011;64505;51.458;7.556;2023-05-10T04:18:17;12.50;;;5.50;;
75774;SDS011;64505;51.458;7.556;2023-05-10T04:20:19;10.68;;;6.50;;
75774;SDS011;64505;51.458;7.556;2023-05-10T04:22:21;10.73;;;6.30;;
75774;SDS011;64505;51.458;7.556;2023-05-10T04:24:22;12.63;;;5.93;;
75774;SDS011;64505;51.458;7.556;2023-05-10T04:26:24;11.43;;;6.15;;
75774;SDS011;64505;51.458;7.556;2023-05-10T04:28:26;12.18;;;6.68;;
75774;SDS011;64505;51.458;7.556;2023-05-10T04:30:28;10.65;;;6.25;;
75774;SDS011;64505;51.458;7.556;2023-05-10T04:32:30;11.57;;;6.15;;
75774;SDS011;64505;51.458;7.556;2023-05-10T04:34:32;12.48;;;6.20;;
75774;SDS011;64505;51.458;7.556;2023-05-10T04:36:35;11.50;;;6.60;;
75774;SDS011;64505;51.458;7.556;2023-05-10T04:38:37;10.95;;;6.63;;
75774;SDS011;64505;51.458;7.556;2023-05-10T04:40:39;11.10;;;6.22;;
75774;SDS011;64505;51.458;7.556;2023-05-10T04:42:41;12.18;;;6.32;;
75774;SDS011;64505;51.458;7.556;2023-05-10T04:44:42;11.23;;;6.80;;
75774;SDS011;64505;51.458;7.556;2023-05-10T04:46:45;13.45;;;7.57;;
75774;SDS011;64505;51.458;7.556;2023-05-10T04:48:47;12.15;;;6.28;;
75774;SDS011;64505;51.458;7.556;2023-05-10T04:50:49;14.88;;;7.30;;
75774;SDS011;64505;51.458;7.556;2023-05-10T04:52:50;12.52;;;7.20;;
75774;SDS011;64505;51.458;7.556;2023-05-10T04:54:53;12.35;;;7.15;;
75774;SDS011;64505;51.458;7.556;2023-05-10T04:56:55;14.93;;;7.18;;
75774;SDS011;64505;51.458;7.556;2023-05-10T04:58:56;12.00;;;6.68;;
75774;SDS011;64505;51.458;7.556;2023-05-10T05:01:04;11.40;;;6.40;;
75774;SDS011;64505;51.458;7.556;2023-05-10T05:03:06;12.50;;;6.85;;
75774;SDS011;64505;51.458;7.556;2023-05-10T05:05:08;11.68;;;6.50;;
75774;SDS011;64505;51.458;7.556;2023-05-10T05:07:10;11.95;;;6.38;;
75774;SDS011;64505;51.458;7.556;2023-05-10T05:09:11;13.82;;;6.45;;
75774;SDS011;64505;51.458;7.556;2023-05-10T05:11:13;12.48;;;6.72;;
75774;SDS011;64505;51.458;7.556;2023-05-10T05:13:15;11.73;;;6.55;;
75774;SDS011;64505;51.458;7.556;2023-05-10T05:15:16;15.15;;;7.50;;
75774;SDS011;64505;51.458;7.556;2023-05-10T05:17:18;13.70;;;6.95;;
75774;SDS011;64505;51.458;7.556;2023-05-10T05:19:20;13.25;;;7.28;;
75774;SDS011;64505;51.458;7.556;2023-05-10T05:21:21;15.32;;;8.07;;
75774;SDS011;64505;51.458;7.556;2023-05-10T05:23:23;14.50;;;7.45;;
75774;SDS011;64505;51.458;7.556;2023-05-10T05:25:26;14.40;;;7.82;;
75774;SDS011;64505;51.458;7.556;2023-05-10T05:27:27;15.35;;;8.20;;
75774;SDS011;64505;51.458;7.556;2023-05-10T05:29:29;17.98;;;8.45;;
75774;SDS011;64505;51.458;7.556;2023-05-10T05:31:30;14.48;;;7.78;;
75774;SDS011;64505;51.458;7.556;2023-05-10T05:33:32;17.52;;;8.93;;
75774;SDS011;64505;51.458;7.556;2023-05-10T05:35:34;16.63;;;9.23;;
75774;SDS011;64505;51.458;7.556;2023-05-10T05:37:36;18.58;;;9.30;;
75774;SDS011;64505;51.458;7.556;2023-05-10T05:39:38;21.75;;;10.48;;
75774;SDS011;64505;51.458;7.556;2023-05-10T05:41:39;16.65;;;9.02;;
75774;SDS011;64505;51.458;7.556;2023-05-10T05:43:41;19.88;;;9.88;;
75774;SDS011;64505;51.458;7.556;2023-05-10T05:45:42;20.83;;;10.90;;
75774;SDS011;64505;51.458;7.556;2023-05-10T05:47:44;20.05;;;10.18;;
75774;SDS011;64505;51.458;7.556;2023-05-10T05:49:46;20.00;;;10.38;;
75774;SDS011;64505;51.458;7.556;2023-05-10T05:51:48;22.02;;;11.15;;
75774;SDS011;64505;51.458;7.556;2023-05-10T05:53:51;23.48;;;11.65;;
75774;SDS011;64505;51.458;7.556;2023-05-10T05:55:56;23.90;;;11.00;;
75774;SDS011;64505;51.458;7.556;2023-05-10T05:57:59;20.98;;;11.32;;
75774;SDS011;64505;51.458;7.556;2023-05-10T06:00:00;25.17;;;11.85;;
75774;SDS011;64505;51.458;7.556;2023-05-10T06:02:02;25.33;;;12.43;;
75774;SDS011;64505;51.458;7.556;2023-05-10T06:04:04;24.10;;;12.77;;
75774;SDS011;64505;51.458;7.556;2023-05-10T06:06:05;27.13;;;13.35;;
75774;SDS011;64505;51.458;7.556;2023-05-10T06:08:07;31.63;;;14.20;;
75774;SDS011;64505;51.458;7.556;2023-05-10T06:10:09;25.08;;;12.93;;
75774;SDS011;64505;51.458;7.556;2023-05-10T06:12:11;26.75;;;13.48;;
75774;SDS011;64505;51.458;7.556;2023-05-10T06:14:13;32.72;;;14.90;;
75774;SDS011;64505;51.458;7.556;2023-05-10T06:16:14;28.00;;;13.80;;
75774;SDS011;64505;51.458;7.556;2023-05-10T06:18:16;28.50;;;14.55;;
75774;SDS011;64505;51.458;7.556;2023-05-10T06:20:17;30.92;;;14.98;;
75774;SDS011;64505;51.458;7.556;2023-05-10T06:22:19;30.45;;;14.52;;
75774;SDS011;64505;51.458;7.556;2023-05-10T06:24:21;29.45;;;14.50;;
75774;SDS011;64505;51.458;7.556;2023-05-10T06:26:22;27.50;;;14.30;;
75774;SDS011;64505;51.458;7.556;2023-05-10T06:28:24;34.97;;;15.57;;
75774;SDS011;64505;51.458;7.556;2023-05-10T06:30:26;28.20;;;14.25;;
75774;SDS011;64505;51.458;7.556;2023-05-10T06:32:30;29.08;;;14.35;;
75774;SDS011;64505;51.458;7.556;2023-05-10T06:34:32;30.40;;;15.85;;
75774;SDS011;64505;51.458;7.556;2023-05-10T06:36:34;28.15;;;14.43;;
75774;SDS011;64505;51.458;7.556;2023-05-10T06:38:35;33.90;;;15.50;;
75774;SDS011;64505;51.458;7.556;2023-05-10T06:40:40;34.25;;;16.35;;
75774;SDS011;64505;51.458;7.556;2023-05-10T06:42:42;34.42;;;16.52;;
75774;SDS011;64505;51.458;7.556;2023-05-10T06:44:46;31.58;;;15.70;;
75774;SDS011;64505;51.458;7.556;2023-05-10T06:46:47;32.10;;;14.85;;
75774;SDS011;64505;51.458;7.556;2023-05-10T06:48:49;32.63;;;15.20;;
75774;SDS011;64505;51.458;7.556;2023-05-10T06:50:51;36.08;;;15.35;;
75774;SDS011;64505;51.458;7.556;2023-05-10T06:52:52;33.50;;;16.77;;
75774;SDS011;64505;51.458;7.556;2023-05-10T06:54:54;34.05;;;15.50;;
75774;SDS011;64505;51.458;7.556;2023-05-10T06:56:55;29.73;;;14.68;;
75774;SDS011;64505;51.458;7.556;2023-05-10T06:58:57;35.78;;;16.60;;
75774;SDS011;64505;51.458;7.556;2023-05-10T07:01:05;32.05;;;16.10;;
75774;SDS011;64505;51.458;7.556;2023-05-10T07:03:07;31.10;;;15.52;;
75774;SDS011;64505;51.458;7.556;2023-05-10T07:05:08;31.92;;;15.27;;
75774;SDS011;64505;51.458;7.556;2023-05-10T07:07:10;33.22;;;16.48;;
75774;SDS011;64505;51.458;7.556;2023-05-10T07:09:12;34.65;;;16.60;;
75774;SDS011;64505;51.458;7.556;2023-05-10T07:11:14;34.03;;;15.70;;
75774;SDS011;64505;51.458;7.556;2023-05-10T07:13:16;32.05;;;16.38;;
75774;SDS011;64505;51.458;7.556;2023-05-10T07:15:18;35.42;;;17.40;;
75774;SDS011;64505;51.458;7.556;2023-05-10T07:17:19;34.15;;;16.80;;
75774;SDS011;64505;51.458;7.556;2023-05-10T07:19:21;34.88;;;17.25;;
75774;SDS011;64505;51.458;7.556;2023-05-10T07:21:23;38.30;;;17.00;;
75774;SDS011;64505;51.458;7.556;2023-05-10T07:23:29;33.72;;;16.48;;
75774;SDS011;64505;51.458;7.556;2023-05-10T07:25:31;36.60;;;18.15;;
75774;SDS011;64505;51.458;7.556;2023-05-10T07:27:33;32.58;;;16.75;;
75774;SDS011;64505;51.458;7.556;2023-05-10T07:29:35;32.85;;;16.13;;
75774;SDS011;64505;51.458;7.556;2023-05-10T07:31:37;33.45;;;16.85;;
75774;SDS011;64505;51.458;7.556;2023-05-10T07:33:39;39.33;;;18.92;;
75774;SDS011;64505;51.458;7.556;2023-05-10T07:35:41;33.40;;;17.00;;
75774;SDS011;64505;51.458;7.556;2023-05-10T07:37:43;35.22;;;17.02;;
75774;SDS011;64505;51.458;7.556;2023-05-10T07:39:45;30.88;;;16.63;;
75774;SDS011;64505;51.458;7.556;2023-05-10T07:41:46;39.60;;;17.58;;
75774;SDS011;64505;51.458;7.556;2023-05-10T07:43:48;31.33;;;15.73;;
75774;SDS011;64505;51.458;7.556;2023-05-10T07:45:49;32.17;;;15.40;;
75774;SDS011;64505;51.458;7.556;2023-05-10T07:47:52;28.27;;;15.68;;
75774;SDS011;64505;51.458;7.556;2023-05-10T07:49:54;27.73;;;14.50;;
75774;SDS011;64505;51.458;7.556;2023-05-10T07:51:56;28.38;;;14.48;;
75774;SDS011;64505;51.458;7.556;2023-05-10T07:53:58;26.55;;;15.20;;
75774;SDS011;64505;51.458;7.556;2023-05-10T07:56:19;26.92;;;13.05;;
75774;SDS011;64505;51.458;7.556;2023-05-10T07:58:33;26.45;;;13.65;;
75774;SDS011;64505;51.458;7.556;2023-05-10T08:00:35;28.85;;;14.52;;
75774;SDS011;64505;51.458;7.556;2023-05-10T08:02:40;22.88;;;12.18;;
75774;SDS011;64505;51.458;7.556;2023-05-10T08:04:42;24.92;;;12.43;;
75774;SDS011;64505;51.458;7.556;2023-05-10T08:06:44;23.05;;;11.50;;
75774;SDS011;64505;51.458;7.556;2023-05-10T08:08:46;28.13;;;11.68;;
75774;SDS011;64505;51.458;7.556;2023-05-10T08:10:50;23.98;;;12.05;;
75774;SDS011;64505;51.458;7.556;2023-05-10T08:12:52;22.23;;;11.77;;
75774;SDS011;64505;51.458;7.556;2023-05-10T08:14:53;22.42;;;11.88;;
75774;SDS011;64505;51.458;7.556;2023-05-10T08:16:55;26.40;;;13.32;;
75774;SDS011;64505;51.458;7.556;2023-05-10T08:18:57;22.42;;;11.50;;
75774;SDS011;64505;51.458;7.556;2023-05-10T08:20:59;26.98;;;13.80;;
75774;SDS011;64505;51.458;7.556;2023-05-10T08:23:00;24.10;;;12.70;;
75774;SDS011;64505;51.458;7.556;2023-05-10T08:25:02;22.65;;;12.20;;
75774;SDS011;64505;51.458;7.556;2023-05-10T08:27:07;22.70;;;11.60;;
75774;SDS011;64505;51.458;7.556;2023-05-10T08:29:09;22.60;;;11.95;;
75774;SDS011;64505;51.458;7.556;2023-05-10T08:31:10;23.38;;;11.82;;
75774;SDS011;64505;51.458;7.556;2023-05-10T08:33:13;22.95;;;11.55;;
75774;SDS011;64505;51.458;7.556;2023-05-10T08:35:15;18.15;;;9.93;;
75774;SDS011;64505;51.458;7.556;2023-05-10T08:37:17;19.27;;;9.40;;
75774;SDS011;64505;51.458;7.556;2023-05-10T08:39:18;15.95;;;7.50;;
75774;SDS011;64505;51.458;7.556;2023-05-10T08:41:31;16.40;;;7.13;;
75774;SDS011;64505;51.458;7.556;2023-05-10T08:43:37;16.40;;;6.50;;
75774;SDS011;64505;51.458;7.556;2023-05-10T08:45:43;13.55;;;6.93;;
75774;SDS011;64505;51.458;7.556;2023-05-10T08:47:48;12.27;;;6.53;;
75774;SDS011;64505;51.458;7.556;2023-05-10T08:49:51;13.82;;;6.20;;
75774;SDS011;64505;51.458;7.556;2023-05-10T08:51:54;11.85;;;6.43;;
75774;SDS011;64505;51.458;7.556;2023-05-10T08:53:57;15.52;;;7.13;;
75774;SDS011;64505;51.458;7.556;2023-05-10T08:55:59;12.43;;;6.55;;
75774;SDS011;64505;51.458;7.556;2023-05-10T08:58:02;14.35;;;7.38;;
75774;SDS011;64505;51.458;7.556;2023-05-10T09:00:05;16.05;;;7.47;;
75774;SDS011;64505;51.458;7.556;2023-05-10T09:02:07;13.20;;;7.10;;
75774;SDS011;64505;51.458;7.556;2023-05-10T09:04:12;13.00;;;6.85;;
75774;SDS011;64505;51.458;7.556;2023-05-10T09:06:14;16.35;;;7.60;;
75774;SDS011;64505;51.458;7.556;2023-05-10T09:08:17;14.68;;;6.93;;
75774;SDS011;64505;51.458;7.556;2023-05-10T09:10:19;11.05;;;6.00;;
75774;SDS011;64505;51.458;7.556;2023-05-10T09:12:21;14.20;;;6.28;;
75774;SDS011;64505;51.458;7.556;2023-05-10T09:14:24;17.27;;;6.78;;
75774;SDS011;64505;51.458;7.556;2023-05-10T09:16:26;14.55;;;6.47;;
75774;SDS011;64505;51.458;7.556;2023-05-10T09:18:28;11.88;;;6.45;;
75774;SDS011;64505;51.458;7.556;2023-05-10T09:20:29;12.65;;;6.47;;
75774;SDS011;64505;51.458;7.556;2023-05-10T09:22:32;11.77;;;5.93;;
75774;SDS011;64505;51.458;7.556;2023-05-10T09:24:37;13.75;;;6.22;;
75774;SDS011;64505;51.458;7.556;2023-05-10T09:26:47;12.90;;;6.18;;
75774;SDS011;64505;51.458;7.556;2023-05-10T09:28:53;13.35;;;6.32;;
75774;SDS011;64505;51.458;7.556;2023-05-10T09:30:59;12.65;;;6.20;;
75774;SDS011;64505;51.458;7.556;2023-05-10T09:33:00;15.80;;;6.30;;
75774;SDS011;64505;51.458;7.556;2023-05-10T09:35:36;17.90;;;7.40;;
75774;SDS011;64505;51.458;7.556;2023-05-10T09:37:31;16.13;;;6.45;;
75774;SDS011;64505;51.458;7.556;2023-05-10T09:39:33;16.20;;;8.38;;
75774;SDS011;64505;51.458;7.556;2023-05-10T09:41:36;16.25;;;8.15;;
75774;SDS011;64505;51.458;7.556;2023-05-10T09:43:38;20.30;;;8.80;;
75774;SDS011;64505;51.458;7.556;2023-05-10T09:45:40;16.27;;;7.95;;
75774;SDS011;64505;51.458;7.556;2023-05-10T09:47:42;17.17;;;7.15;;
75774;SDS011;64505;51.458;7.556;2023-05-10T09:49:44;15.40;;;7.75;;
75774;SDS011;64505;51.458;7.556;2023-05-10T09:52:04;16.42;;;8.23;;
75774;SDS011;64505;51.458;7.556;2023-05-10T09:54:09;15.88;;;7.70;;
75774;SDS011;64505;51.458;7.556;2023-05-10T09:56:35;14.15;;;7.53;;
75774;SDS011;64505;51.458;7.556;2023-05-10T09:58:38;15.45;;;7.53;;
75774;SDS011;64505;51.458;7.556;2023-05-10T10:00:43;13.35;;;6.43;;
75774;SDS011;64505;51.458;7.556;2023-05-10T10:02:47;15.77;;;7.15;;
75774;SDS011;64505;51.458;7.556;2023-05-10T10:04:55;13.45;;;6.15;;
75774;SDS011;64505;51.458;7.556;2023-05-10T10:07:03;12.55;;;5.70;;
75774;SDS011;64505;51.458;7.556;2023-05-10T10:09:06;12.18;;;5.70;;
75774;SDS011;64505;51.458;7.556;2023-05-10T10:11:08;12.23;;;5.75;;
75774;SDS011;64505;51.458;7.556;2023-05-10T10:13:10;10.85;;;4.78;;
75774;SDS011;64505;51.458;7.556;2023-05-10T10:15:11;11.52;;;4.82;;
75774;SDS011;64505;51.458;7.556;2023-05-10T10:17:17;9.60;;;4.28;;
75774;SDS011;64505;51.458;7.556;2023-05-10T10:19:19;7.70;;;3.80;;
75774;SDS011;64505;51.458;7.556;2023-05-10T10:21:24;8.10;;;3.65;;
75774;SDS011;64505;51.458;7.556;2023-05-10T10:23:26;7.55;;;3.65;;
75774;SDS011;64505;51.458;7.556;2023-05-10T10:25:28;8.35;;;3.40;;
75774;SDS011;64505;51.458;7.556;2023-05-10T10:27:36;7.53;;;3.60;;
75774;SDS011;64505;51.458;7.556;2023-05-10T10:34:38;7.78;;;3.97;;
75774;SDS011;64505;51.458;7.556;2023-05-10T10:36:42;8.00;;;3.72;;
75774;SDS011;64505;51.458;7.556;2023-05-10T10:40:47;8.48;;;3.55;;
75774;SDS011;64505;51.458;7.556;2023-05-10T10:42:49;9.52;;;3.65;;
75774;SDS011;64505;51.458;7.556;2023-05-10T10:45:11;8.55;;;4.40;;
75774;SDS011;64505;51.458;7.556;2023-05-10T10:49:25;7.68;;;3.92;;
75774;SDS011;64505;51.458;7.556;2023-05-10T10:51:28;7.65;;;4.25;;
75774;SDS011;64505;51.458;7.556;2023-05-10T10:53:30;9.43;;;3.80;;
75774;SDS011;64505;51.458;7.556;2023-05-10T10:55:33;8.80;;;4.10;;
75774;SDS011;64505;51.458;7.556;2023-05-10T10:59:43;9.07;;;4.10;;
75774;SDS011;64505;51.458;7.556;2023-05-10T11:01:51;11.57;;;4.97;;
75774;SDS011;64505;51.458;7.556;2023-05-10T11:06:03;10.30;;;5.60;;
75774;SDS011;64505;51.458;7.556;2023-05-10T11:08:15;11.73;;;5.10;;
75774;SDS011;64505;51.458;7.556;2023-05-10T11:10:20;10.63;;;5.30;;
75774;SDS011;64505;51.458;7.556;2023-05-10T11:12:25;17.48;;;6.82;;
75774;SDS011;64505;51.458;7.556;2023-05-10T11:14:26;12.82;;;6.80;;
75774;SDS011;64505;51.458;7.556;2023-05-10T11:16:28;14.98;;;6.97;;
75774;SDS011;64505;51.458;7.556;2023-05-10T11:21:09;18.58;;;9.10;;
75774;SDS011;64505;51.458;7.556;2023-05-10T11:23:12;18.98;;;9.23;;
75774;SDS011;64505;51.458;7.556;2023-05-10T11:25:17;22.55;;;9.63;;
75774;SDS011;64505;51.458;7.556;2023-05-10T11:27:18;20.90;;;9.63;;
75774;SDS011;64505;51.458;7.556;2023-05-10T11:29:21;18.25;;;9.38;;
75774;SDS011;64505;51.458;7.556;2023-05-10T11:31:23;20.92;;;8.90;;
75774;SDS011;64505;51.458;7.556;2023-05-10T11:33:27;17.65;;;8.75;;
75774;SDS011;64505;51.458;7.556;2023-05-10T11:35:29;16.95;;;8.95;;
75774;SDS011;64505;51.458;7.556;2023-05-10T11:37:31;17.02;;;9.25;;
75774;SDS011;64505;51.458;7.556;2023-05-10T11:39:35;18.02;;;8.85;;
75774;SDS011;64505;51.458;7.556;2023-05-10T11:41:36;16.83;;;7.90;;
75774;SDS011;64505;51.458;7.556;2023-05-10T11:43:38;16.33;;;7.72;;
75774;SDS011;64505;51.458;7.556;2023-05-10T11:45:41;14.73;;;6.70;;
75774;SDS011;64505;51.458;7.556;2023-05-10T11:47:42;15.63;;;7.20;;
75774;SDS011;64505;51.458;7.556;2023-05-10T11:49:44;15.43;;;6.65;;
75774;SDS011;64505;51.458;7.556;2023-05-10T11:51:47;14.98;;;6.45;;
75774;SDS011;64505;51.458;7.556;2023-05-10T11:53:49;11.82;;;6.07;;
75774;SDS011;64505;51.458;7.556;2023-05-10T11:55:52;10.75;;;5.55;;
75774;SDS011;64505;51.458;7.556;2023-05-10T11:57:54;11.88;;;5.95;;
75774;SDS011;64505;51.458;7.556;2023-05-10T11:59:56;9.70;;;4.63;;
75774;SDS011;64505;51.458;7.556;2023-05-10T12:01:58;11.25;;;5.28;;
75774;SDS011;64505;51.458;7.556;2023-05-10T12:04:00;10.20;;;5.25;;
75774;SDS011;64505;51.458;7.556;2023-05-10T12:06:02;8.88;;;5.10;;
75774;SDS011;64505;51.458;7.556;2023-05-10T12:08:14;13.38;;;6.47;;
75774;SDS011;64505;51.458;7.556;2023-05-10T12:10:17;13.88;;;6.80;;
75774;SDS011;64505;51.458;7.556;2023-05-10T12:12:26;13.52;;;7.30;;
75774;SDS011;64505;51.458;7.556;2023-05-10T12:14:28;13.93;;;8.05;;
75774;SDS011;64505;51.458;7.556;2023-05-10T12:16:34;17.10;;;9.15;;
75774;SDS011;64505;51.458;7.556;2023-05-10T12:18:38;13.35;;;8.15;;
75774;SDS011;64505;51.458;7.556;2023-05-10T12:20:41;14.30;;;8.18;;
75774;SDS011;64505;51.458;7.556;2023-05-10T12:22:44;14.95;;;8.82;;
75774;SDS011;64505;51.458;7.556;2023-05-10T12:24:52;17.70;;;9.63;;
75774;SDS011;64505;51.458;7.556;2023-05-10T12:26:54;14.80;;;7.85;;
75774;SDS011;64505;51.458;7.556;2023-05-10T12:29:11;14.10;;;8.00;;
75774;SDS011;64505;51.458;7.556;2023-05-10T12:31:13;14.55;;;7.35;;
75774;SDS011;64505;51.458;7.556;2023-05-10T12:33:15;13.32;;;7.47;;
75774;SDS011;64505;51.458;7.556;2023-05-10T12:35:19;11.98;;;7.30;;
75774;SDS011;64505;51.458;7.556;2023-05-10T12:37:24;15.77;;;8.38;;
75774;SDS011;64505;51.458;7.556;2023-05-10T12:39:41;12.13;;;8.00;;
75774;SDS011;64505;51.458;7.556;2023-05-10T12:41:44;16.67;;;8.07;;
75774;SDS011;64505;51.458;7.556;2023-05-10T12:43:45;14.10;;;8.70;;
75774;SDS011;64505;51.458;7.556;2023-05-10T12:45:47;15.88;;;9.13;;
75774;SDS011;64505;51.458;7.556;2023-05-10T12:47:50;15.18;;;9.70;;
75774;SDS011;64505;51.458;7.556;2023-05-10T12:49:51;14.00;;;8.95;;